Tiempo atmosférico en la estación meteorológica de Alcázar Del Rey, Cuenca (875 m.)

Fecha
DESCASC
Temp. máxima en grados centígrados (hora)
DESCASC
Temp. mínima en grados centígrados (hora)
DESCASC
Temp. media en grados centígrados
DESCASC
Racha de viento máxima en m/sg (hora)
DESCASC
Velocidad máxima media en intervalos de 10 minutos(hora)
DESCASC
Precipitaciones diarias en mm
DESCASC
Precipitaciones de 00:00 a 06:00 en mm
DESCASC
Precipitaciones de 06:00 a 12:00 en mm
DESCASC
Precipitaciones de 12:00 a 18:00 en mm
DESCASC
Precipitaciones de 18:00 a 24:00 en mm
DESCASC
19-10-2017 14.1 (17:40) 4.4 (07:30) 9.3 8.33 (15:00) 4.72 (18:10) 0.2 0.2 0 0 0
18-10-2017 13.9 (01:10) 7.5 (23:30) 10.7 11.67 (07:50) 6.11 (07:50) 11 0.2 3.4 6.6 0.8
17-10-2017 20.6 (15:00) 11.2 (06:30) 15.9 11.11 (07:10) 6.39 (00:50) 0.2 0 0 0 0.2
16-10-2017 26.1 (16:50) 12.4 (08:30) 19.3 11.39 (01:30) 7.22 (01:40) 0 0 0 0 0
15-10-2017 27.7 (16:30) 12.4 (00:00) 20.1 9.72 (23:20) 5.83 (17:40) 0 0 0 0 0
14-10-2017 27.7 (16:40) 10.8 (00:00) 19.3 6.39 (23:20) 3.61 (23:20) 0 0 0 0 0
13-10-2017 28.1 (16:00) 13.2 (00:00) 20.7 7.5 (16:30) 3.89 (16:30) 0 0 0 0 0
12-10-2017 28 (17:10) 8.2 (00:00) 18.1 5.56 (16:30) 2.5 (16:40) 0 0 0 0 0
11-10-2017 27 (17:00) 9.2 (00:00) 18.1 7.5 (15:00) 3.89 (16:10) 0 0 0 0 0
10-10-2017 26.9 (16:20) 8.9 (00:00) 17.9 6.67 (15:10) 3.06 (15:10) 0 0 0 0 0
09-10-2017 26.7 (15:50) 7.9 (00:00) 17.3 7.22 (16:40) 3.61 (17:20) 0 0 0 0 0
08-10-2017 25.8 (17:10) 11.4 (00:00) 18.6 8.61 (01:50) 5 (01:40) 0 0 0 0 0
07-10-2017 25.7 (16:30) 9.4 (00:00) 17.6 8.33 (17:50) 5.56 (03:00) 0 0 0 0 0
06-10-2017 27.7 (16:10) 12.7 (00:00) 20.2 10 (16:00) 6.11 (10:30) 0 0 0 0 0
05-10-2017 29.5 (16:20) 12.3 (00:00) 20.9 8.61 (00:50) 5 (01:00) 0 0 0 0 0
04-10-2017 28.6 (16:30) 15.3 (00:00) 22 10.83 (10:50) 6.67 (12:00) 0 0 0 0 0
03-10-2017 29 (17:30) 12.6 (00:00) 20.8 6.67 (17:20) 3.33 (17:20) 0 0 0 0 0
02-10-2017 27.3 (16:30) 13.2 (00:00) 20.2 8.33 (14:50) 4.72 (14:50) 0 0 0 0 0
01-10-2017 24.4 (17:10) 14.5 (00:00) 19.4 9.72 (17:30) 5.56 (17:30) 0 0 0 0 0
30-09-2017 26.5 (17:00) 13.9 (00:00) 20.2 8.89 (18:10) 4.72 (18:00) 0 0 0 0 0
29-09-2017 27.8 (15:50) 13.1 (00:00) 20.4 8.33 (02:00) 3.89 (01:20) 0 0 0 0 0
28-09-2017 28.9 (16:40) 12.7 (00:00) 20.8 6.94 (17:10) 3.61 (23:10) 0 0 0 0 0
27-09-2017 26 (15:50) 13.3 (00:00) 19.7 10.83 (15:00) 5 (03:40) 0 0 0 0 0
26-09-2017 -- (--) -- (--) -- -- (--) -- (--) -- 0 -- 0 0
25-09-2017 26.1 (16:20) 12.8 (00:00) 19.5 10.83 (17:00) 5.56 (17:10) 0 0 0 0 0
24-09-2017 28.4 (16:10) 12 (00:00) 20.2 6.67 (13:40) 3.33 (13:40) 0 0 0 0 0
23-09-2017 29 (17:00) 12.6 (00:00) 20.8 10.28 (00:10) 6.67 (00:10) 0 0 0 0 0
22-09-2017 26.4 (16:20) 14.9 (00:00) 20.6 11.39 (23:10) 6.94 (23:10) 0 0 0 0 0
21-09-2017 28.6 (15:10) 11.3 (00:00) 20 7.22 (15:10) 3.33 (15:10) 0 0 0 0 0
20-09-2017 27.5 (16:30) 9.4 (00:00) 18.4 5.83 (16:50) 3.89 (03:50) 0 0 0 0 0

Gráficas

Temp. máximas Temp. mínimas Temp. medias Precipitaciones Rachas de viento máximas Velocidades máximas media en intervalos de 10 minutos

Datos horarios

Fecha y hora oficial Temperatura (ºC) Velocidad del viento (km/h) Dirección del viento Racha (km/h) Dirección de racha Precipitación (mm) Presión (hPa) Tendencia (hPa) Humedad (%)
2017-10-19 23:00:00 10.2 0 Calma 14 Noroeste 0 -- -- 78
2017-10-19 22:00:00 10.9 4 Noroeste 9 Norte 0 -- -- 75
2017-10-19 21:00:00 11.4 2 Noroeste 13 Noroeste 0 -- -- 74
2017-10-19 20:00:00 12.4 5 Noroeste 18 Noroeste 0 -- -- 72
2017-10-19 19:00:00 13.8 10 Noroeste 26 Oeste 0 -- -- 62
2017-10-19 18:00:00 14 11 Noroeste 30 Noroeste 0 -- -- 63
2017-10-19 17:00:00 13.1 13 Noroeste 26 Oeste 0 -- -- 62
2017-10-19 16:00:00 13.6 11 Noroeste 28 Noroeste 0 -- -- 61
2017-10-19 15:00:00 13.5 10 Noroeste 30 Noroeste 0 -- -- 62
2017-10-19 14:00:00 12.6 14 Noroeste 26 Noroeste 0 -- -- 68
2017-10-19 13:00:00 11.8 9 Oeste 19 Noroeste 0 -- -- 78
2017-10-19 12:00:00 9.7 5 Oeste 10 Oeste 0 -- -- 96
2017-10-19 11:00:00 7.4 0 Calma 4 Noroeste 0 -- -- 98
2017-10-19 10:00:00 5.7 0 Calma 4 Sur 0 -- -- 97
2017-10-19 09:00:00 4.6 0 Calma 4 Nordeste 0 -- -- 96
2017-10-19 08:00:00 4.5 0 Calma 3 Sudeste 0 -- -- 95
2017-10-19 07:00:00 5 0 Calma 4 Noroeste 0 -- -- 93
2017-10-19 06:00:00 5.8 0 Calma 3 Oeste 0 -- -- 93
2017-10-19 05:00:00 6.4 0 Calma 4 Sur 0 -- -- 93
2017-10-19 04:00:00 6.9 0 Calma 3 Sur 0.2 -- -- 93
2017-10-19 03:00:00 7.3 0 Calma 6 Sur 0 -- -- 94
2017-10-19 02:00:00 7.4 4 Sur 6 Sur 0 -- -- 93
2017-10-19 01:00:00 7.7 2 Sur 5 Sur 0 -- -- 92
2017-10-19 00:00:00 7.5 0 Calma 5 Sur 0 -- -- 91
2017-10-18 23:00:00 7.9 0 Calma 4 Sur 0 -- -- 88
2017-10-18 22:00:00 8.6 0 Calma 11 Sudoeste 0 -- -- 88
2017-10-18 21:00:00 9.3 8 Sudoeste 21 Noroeste 0.6 -- -- 86
2017-10-18 20:00:00 10.2 7 Sudoeste 22 Sudoeste 0 -- -- 87
2017-10-18 19:00:00 10.8 12 Sudoeste 20 Oeste 0.2 -- -- 84
2017-10-18 18:00:00 10.9 4 Oeste 40 Oeste 1.2 -- -- 86
2017-10-18 17:00:00 11.2 4 Oeste 23 Oeste 1 -- -- 90
2017-10-18 16:00:00 12 9 Sudoeste 19 Sudoeste 1.2 -- -- 87
2017-10-18 15:00:00 11.9 9 Sudoeste 18 Sudoeste 0.8 -- -- 91
2017-10-18 14:00:00 12.1 8 Sudoeste 17 Sur 0.6 -- -- 91
2017-10-18 13:00:00 11.4 8 Sudoeste 21 Sur 1.8 -- -- 92
2017-10-18 12:00:00 11.8 11 Sur 23 Sur 1.2 -- -- 93
2017-10-18 11:00:00 11.7 17 Sur 27 Sur 0.8 -- -- 93
2017-10-18 10:00:00 11.4 9 Sur 22 Sur 0.8 -- -- 92
2017-10-18 09:00:00 11.8 14 Sudoeste 37 Sudoeste 0.6 -- -- 90
2017-10-18 08:00:00 12.7 22 Sudoeste 42 Sudoeste 0 -- -- 85
2017-10-18 07:00:00 12.7 21 Sur 35 Sur 0 -- -- 85
2017-10-18 06:00:00 13.1 20 Sur 31 Sur 0 -- -- 88
2017-10-18 05:00:00 13.4 17 Sur 25 Sur 0 -- -- 84
2017-10-18 04:00:00 13.5 19 Sur 26 Sur 0.2 -- -- 83
2017-10-18 03:00:00 13.3 11 Sur 26 Sur 0 -- -- 83
2017-10-18 02:00:00 13.7 18 Sur 26 Sur 0 -- -- 83
2017-10-18 01:00:00 13.6 8 Sur 22 Sudeste 0 -- -- 82
2017-10-18 00:00:00 13.6 4 Sudoeste 10 Sur 0 -- -- 83
2017-10-17 23:00:00 13.6 3 Sudoeste 8 Sur 0 -- -- 84
2017-10-17 22:00:00 13.5 3 Sur 8 Sur 0 -- -- 84
2017-10-17 21:00:00 14 3 Sur 16 Sudoeste 0.2 -- -- 85
2017-10-17 20:00:00 15 12 Sudoeste 33 Oeste 0 -- -- 82
2017-10-17 19:00:00 19.1 16 Sudoeste 32 Sur 0 -- -- 52
2017-10-17 18:00:00 19.9 13 Sur 23 Sudeste 0 -- -- 47
2017-10-17 17:00:00 20.4 13 Sur 22 Sudeste 0 -- -- 45
2017-10-17 16:00:00 20.2 14 Sur 23 Sur 0 -- -- 46
2017-10-17 15:00:00 20.6 12 Sudoeste 28 Sudoeste 0 -- -- 45
2017-10-17 14:00:00 20.3 12 Sur 27 Sur 0 -- -- 50
2017-10-17 13:00:00 17.8 15 Sudeste 26 Sudeste 0 -- -- 64
2017-10-17 12:00:00 15.9 10 Sudeste 31 Sudeste 0 -- -- 70
2017-10-17 11:00:00 15 21 Sur 34 Sur 0 -- -- 75
2017-10-17 10:00:00 13.2 20 Sudeste 39 Sudeste 0 -- -- 82
2017-10-17 09:00:00 11.5 17 Sudeste 36 Sudeste 0 -- -- 89
2017-10-17 08:00:00 11.4 18 Sur 40 Sudeste 0 -- -- 88
2017-10-17 07:00:00 11.2 17 Sudeste 31 Sudeste 0 -- -- 88
2017-10-17 06:00:00 11.4 19 Sur 32 Sur 0 -- -- 82
2017-10-17 05:00:00 11.8 17 Sudeste 32 Sudeste 0 -- -- 80
2017-10-17 04:00:00 12.1 16 Sudeste 33 Sudeste 0 -- -- 79
2017-10-17 03:00:00 12.6 16 Sudeste 32 Sudeste 0 -- -- 75
2017-10-17 02:00:00 13.5 18 Sudeste 35 Sudeste 0 -- -- 70
2017-10-17 01:00:00 14.2 21 Sudeste 36 Sudeste 0 -- -- 67
2017-10-17 00:00:00 15.2 23 Sudeste 36 Sudeste 0 -- -- 62
2017-10-16 23:00:00 16.6 15 Sudeste 25 Sur 0 -- -- 56
2017-10-16 22:00:00 17.5 8 Sur 19 Sudeste 0 -- -- 48
2017-10-16 21:00:00 18.8 7 Sudeste 12 Sur 0 -- -- 43
2017-10-16 20:00:00 20.9 6 Sur 13 Sur 0 -- -- 38
2017-10-16 19:00:00 23.6 9 Sur 19 Sur 0 -- -- 33
2017-10-16 18:00:00 25.2 8 Sur 18 Sur 0 -- -- 29
2017-10-16 17:00:00 26.1 8 Sudeste 18 Sudeste 0 -- -- 29
2017-10-16 16:00:00 25.9 8 Sur 18 Este 0 -- -- 28
2017-10-16 15:00:00 25 8 Sur 23 Sur 0 -- -- 34
2017-10-16 14:00:00 23.3 13 Sur 24 Sudeste 0 -- -- 42
2017-10-16 13:00:00 20.7 16 Sudeste 30 Sudeste 0 -- -- 52
2017-10-16 12:00:00 18.3 16 Sudeste 29 Sudeste 0 -- -- 62
2017-10-16 11:00:00 16 20 Sudeste 33 Sudeste 0 -- -- 72
2017-10-16 10:00:00 13.8 13 Sudeste 29 Sudeste 0 -- -- 82
2017-10-16 09:00:00 12.5 10 Sudeste 22 Este 0 -- -- 85
2017-10-16 08:00:00 12.7 9 Sudeste 23 Sudeste 0 -- -- 84
2017-10-16 07:00:00 13.1 13 Sudeste 29 Sudeste 0 -- -- 84
2017-10-16 06:00:00 13.4 15 Sudeste 36 Sudeste 0 -- -- 84
2017-10-16 05:00:00 13.6 19 Sudeste 40 Sudeste 0 -- -- 85
2017-10-16 04:00:00 13.6 21 Sudeste 37 Sudeste 0 -- -- 85
2017-10-16 03:00:00 14.8 17 Sudeste 32 Sudeste 0 -- -- 80
2017-10-16 02:00:00 15.7 20 Sudeste 41 Sudeste 0 -- -- 76
2017-10-16 01:00:00 16.9 24 Sudeste 40 Sudeste 0 -- -- 71
2017-10-16 00:00:00 17.6 20 Sudeste 35 Sudeste 0 -- -- 64
2017-10-15 23:00:00 18.2 18 Sudeste 32 Sudeste 0 -- -- 55
2017-10-15 22:00:00 19.3 19 Sudeste 30 Sudeste 0 -- -- 43
2017-10-15 21:00:00 20.9 14 Sudeste 28 Sudeste 0 -- -- 35
2017-10-15 20:00:00 22.4 13 Sudeste 25 Sudeste 0 -- -- 31
2017-10-15 19:00:00 25 17 Sudeste 32 Sudeste 0 -- -- 27
2017-10-15 18:00:00 26.5 19 Sur 33 Sur 0 -- -- 27
2017-10-15 17:00:00 27.6 15 Sudeste 29 Sur 0 -- -- 27
2017-10-15 16:00:00 27.3 20 Sur 28 Sur 0 -- -- 27
2017-10-15 15:00:00 26.7 14 Sur 27 Sur 0 -- -- 28
2017-10-15 14:00:00 25.4 15 Sudeste 27 Sudeste 0 -- -- 31
2017-10-15 13:00:00 22.8 12 Sur 24 Sudeste 0 -- -- 40
2017-10-15 12:00:00 20.5 15 Sur 32 Sudeste 0 -- -- 46
2017-10-15 11:00:00 17.7 13 Sudeste 27 Sudeste 0 -- -- 57
2017-10-15 10:00:00 13.6 0 Calma 10 Sudeste 0 -- -- 80
2017-10-15 09:00:00 12.6 3 Sudeste 9 Sudeste 0 -- -- 82
2017-10-15 08:00:00 13.1 5 Sudeste 15 Sur 0 -- -- 81
2017-10-15 07:00:00 13.4 4 Sudeste 12 Sudeste 0 -- -- 81
2017-10-15 06:00:00 13.9 0 Calma 10 Sudeste 0 -- -- 80
2017-10-15 05:00:00 14.9 3 Noroeste 19 Sudeste 0 -- -- 77
2017-10-15 04:00:00 15.4 11 Sudeste 21 Sudeste 0 -- -- 76
2017-10-15 03:00:00 15.8 9 Sur 19 Sur 0 -- -- 73
2017-10-15 02:00:00 16.1 6 Sur 17 Sur 0 -- -- 71
2017-10-15 01:00:00 17 8 Sur 18 Sudeste 0 -- -- 65
2017-10-15 00:00:00 17.9 8 Sudeste 23 Sudeste 0 -- -- 47
2017-10-14 23:00:00 17.7 0 Calma 9 Sur 0 -- -- 35
2017-10-14 22:00:00 19 0 Calma 4 Sur 0 -- -- 33
2017-10-14 21:00:00 20.9 0 Calma 3 Sudeste 0 -- -- 31
2017-10-14 20:00:00 23.7 0 Calma 6 Sudoeste 0 -- -- 28
2017-10-14 19:00:00 26.2 2 Sudoeste 13 Sudoeste 0 -- -- 25
2017-10-14 18:00:00 27.1 6 Oeste 15 Oeste 0 -- -- 24
2017-10-14 17:00:00 27.5 5 Oeste 16 Oeste 0 -- -- 23
2017-10-14 16:00:00 27.1 8 Oeste 18 Noroeste 0 -- -- 26
2017-10-14 15:00:00 26.9 7 Sur 18 Oeste 0 -- -- 26
2017-10-14 14:00:00 25.4 6 Sudoeste 17 Sur 0 -- -- 30
2017-10-14 13:00:00 23.3 5 Sudeste 13 Sur 0 -- -- 38
2017-10-14 12:00:00 20.5 8 Sur 14 Sudeste 0 -- -- 45
2017-10-14 11:00:00 17.6 8 Sudeste 16 Sudeste 0 -- -- 59
2017-10-14 10:00:00 13.5 0 Calma 10 Sudeste 0 -- -- 73
2017-10-14 09:00:00 11 3 Sudeste 8 Sudeste 0 -- -- 77
2017-10-14 08:00:00 11.4 2 Este 11 Sudeste 0 -- -- 69
2017-10-14 07:00:00 12.3 5 Este 10 Sudeste 0 -- -- 65
2017-10-14 06:00:00 13.1 3 Sudeste 13 Sur 0 -- -- 60
2017-10-14 05:00:00 13.1 3 Sudeste 11 Sudeste 0 -- -- 57
2017-10-14 04:00:00 13.4 3 Sur 8 Sudeste 0 -- -- 51
2017-10-14 03:00:00 14.3 2 Sur 6 Sur 0 -- -- 44
2017-10-14 02:00:00 15.2 0 Calma 13 Este 0 -- -- 41
2017-10-14 01:00:00 14.2 3 Sudeste 5 Este 0 -- -- 39
2017-10-14 00:00:00 15.5 0 Calma -- -- 0 -- -- 38
2017-10-13 23:00:00 16.8 0 Calma -- -- 0 -- -- 37
2017-10-13 22:00:00 18.7 0 Calma -- -- 0 -- -- 33
2017-10-13 21:00:00 20.7 0 Calma -- -- 0 -- -- 30
2017-10-13 20:00:00 24 0 Calma 9 Sur 0 -- -- 28
2017-10-13 19:00:00 26.7 3 Sudoeste 16 Sudoeste 0 -- -- 23
2017-10-13 18:00:00 27.5 8 Sudoeste 19 Oeste 0 -- -- 24
2017-10-13 17:00:00 27.8 12 Sudoeste 27 Sudoeste 0 -- -- 24
2017-10-13 16:00:00 28.1 12 Sudoeste 25 Sudoeste 0 -- -- 25
2017-10-13 15:00:00 27.5 9 Sudoeste 22 Sudoeste 0 -- -- 26
2017-10-13 14:00:00 26.5 9 Sudoeste 19 Sur 0 -- -- 27
2017-10-13 13:00:00 24.8 7 Sur 18 Sur 0 -- -- 36
2017-10-13 12:00:00 22.3 12 Sur 17 Sudeste 0 -- -- 43
2017-10-13 11:00:00 19.1 9 Sudeste 16 Sudeste 0 -- -- 57
2017-10-13 10:00:00 15 2 Sudoeste 6 Sudeste 0 -- -- 72
2017-10-13 09:00:00 13.7 5 Sudeste 17 Sur 0 -- -- 76
2017-10-13 08:00:00 13.2 4 Sur 13 Sudeste 0 -- -- 72
2017-10-13 07:00:00 13.5 5 Sur 12 Sur 0 -- -- 71
2017-10-13 06:00:00 14.4 8 Sur 14 Sudeste 0 -- -- 67
2017-10-13 05:00:00 15.1 4 Sur 17 Sur 0 -- -- 60
2017-10-13 04:00:00 15.5 9 Sur 16 Sudeste 0 -- -- 59
2017-10-13 03:00:00 16.2 8 Sur 17 Sur 0 -- -- 48
2017-10-13 02:00:00 16.8 4 Sur 21 Sudeste 0 -- -- 41
2017-10-13 01:00:00 16.9 5 Sur 17 Este 0 -- -- 37
2017-10-13 00:00:00 16.9 4 Sur 8 Sudeste 0 -- -- 36
2017-10-12 23:00:00 17.4 3 Sur 5 Sudeste 0 -- -- 34
2017-10-12 22:00:00 18.9 0 Calma 3 Sudoeste 0 -- -- 32
2017-10-12 21:00:00 20.7 0 Calma 4 Norte 0 -- -- 29
2017-10-12 20:00:00 23.9 0 Calma 8 Sudoeste 0 -- -- 26
2017-10-12 19:00:00 26.7 5 Sudoeste 15 Sudoeste 0 -- -- 23
2017-10-12 18:00:00 27.5 7 Oeste 18 Sudoeste 0 -- -- 22
2017-10-12 17:00:00 27.9 5 Sudoeste 20 Sudoeste 0 -- -- 21
2017-10-12 16:00:00 27.2 -- -- -- -- 0 -- -- 22
2017-10-12 15:00:00 26.2 4 Sudeste 14 Sudeste 0 -- -- 25
2017-10-12 14:00:00 26 6 Sur 15 Sur 0 -- -- 24
2017-10-12 13:00:00 24 6 Sur 13 Sur 0 -- -- 27
2017-10-12 12:00:00 20.6 4 Sur 11 Este 0 -- -- 34
2017-10-12 11:00:00 15.9 0 Calma 4 Este 0 -- -- 40
2017-10-12 10:00:00 11.2 2 Norte 8 Nordeste 0 -- -- 44
2017-10-12 09:00:00 8.6 3 Nordeste 5 Nordeste 0 -- -- 48
2017-10-12 08:00:00 8.6 0 Calma 3 Nordeste 0 -- -- 45
2017-10-12 07:00:00 8.9 2 Nordeste 4 Nordeste 0 -- -- 43
2017-10-12 06:00:00 9.4 0 Calma 5 Nordeste 0 -- -- 43
2017-10-12 05:00:00 9.4 3 Nordeste 5 Norte 0 -- -- 42
2017-10-12 04:00:00 10.3 0 Calma -- -- 0 -- -- 41
2017-10-12 03:00:00 10.9 0 Calma 0 Calma 0 -- -- 38
2017-10-12 02:00:00 11.8 0 Calma 0 Calma 0 -- -- 39
2017-10-12 01:00:00 12.9 0 Calma 2 Nordeste 0 -- -- 37
2017-10-12 00:00:00 14.1 0 Calma 4 Sudoeste 0 -- -- 34
2017-10-11 23:00:00 15.8 0 Calma 2 Nordeste 0 -- -- 33
2017-10-11 22:00:00 17.8 0 Calma 4 Nordeste 0 -- -- 30
2017-10-11 21:00:00 20 2 Este 5 Norte 0 -- -- 28
2017-10-11 20:00:00 23 0 Calma 8 Norte 0 -- -- 25
2017-10-11 19:00:00 25.5 4 Sudoeste 17 Sudoeste 0 -- -- 20
2017-10-11 18:00:00 26.3 10 Sudoeste 22 Sudoeste 0 -- -- 20
2017-10-11 17:00:00 27 8 Sudoeste 27 Sudoeste 0 -- -- 21
2017-10-11 16:00:00 26.7 9 Sudoeste 24 Oeste 0 -- -- 22
2017-10-11 15:00:00 26.2 10 Sudoeste 27 Sudoeste 0 -- -- 23
2017-10-11 14:00:00 25.1 8 Sudoeste 15 Sur 0 -- -- 27
2017-10-11 13:00:00 22.6 5 Sur 15 Sudoeste 0 -- -- 33
2017-10-11 12:00:00 19.9 6 Sudeste 14 Sur 0 -- -- 49
2017-10-11 11:00:00 16.7 7 Sudeste 14 Sudeste 0 -- -- 63
2017-10-11 10:00:00 12.6 2 Sur 12 Sur 0 -- -- 74
2017-10-11 09:00:00 9.4 2 Sur 5 Sudeste 0 -- -- 81
2017-10-11 08:00:00 9.6 2 Este 6 Este 0 -- -- 73
2017-10-11 07:00:00 10.1 4 Nordeste 8 Este 0 -- -- 65
2017-10-11 06:00:00 11.4 3 Sudeste 7 Este 0 -- -- 66
2017-10-11 05:00:00 12 3 Sur 21 Sudeste 0 -- -- 60
2017-10-11 04:00:00 11.7 3 Sur 10 Sur 0 -- -- 43
2017-10-11 03:00:00 12.4 4 Sur 17 Este 0 -- -- 39
2017-10-11 02:00:00 11.5 5 Sudeste 18 Sudeste 0 -- -- 36
2017-10-11 01:00:00 12 0 Calma 0 Calma 0 -- -- 34
2017-10-11 00:00:00 13.3 0 Calma 2 Noroeste 0 -- -- 31
2017-10-10 23:00:00 15.1 0 Calma 2 Norte 0 -- -- 29
2017-10-10 22:00:00 17.1 0 Calma 3 Sur 0 -- -- 27
2017-10-10 21:00:00 19.7 0 Calma 3 Sur 0 -- -- 25
2017-10-10 20:00:00 23.1 0 Calma 9 Noroeste 0 -- -- 22
2017-10-10 19:00:00 25.5 4 Noroeste 16 Oeste 0 -- -- 18
2017-10-10 18:00:00 26.6 8 Oeste 18 Noroeste 0 -- -- 17
2017-10-10 17:00:00 26.8 10 Sudoeste 21 Sudoeste 0 -- -- 17
2017-10-10 16:00:00 26.6 5 Oeste 24 Oeste 0 -- -- 19
2017-10-10 15:00:00 26.1 10 Sudoeste 21 Sudoeste 0 -- -- 21
2017-10-10 14:00:00 24.8 3 Sur 12 Sur 0 -- -- 26
2017-10-10 13:00:00 22.1 4 Sudeste 10 Sudeste 0 -- -- 41
2017-10-10 12:00:00 19.2 4 Este 11 Este 0 -- -- 51
2017-10-10 11:00:00 16.2 5 Este 14 Nordeste -- -- -- 65
2017-10-10 10:00:00 12.4 9 Nordeste 13 Nordeste 0 -- -- 58
2017-10-10 09:00:00 9.2 0 Calma 10 Nordeste 0 -- -- 78
2017-10-10 08:00:00 9.1 5 Nordeste 9 Nordeste 0 -- -- 77
2017-10-10 07:00:00 10 4 Este 6 Nordeste 0 -- -- 68
2017-10-10 06:00:00 11.3 2 Nordeste 10 Sudeste 0 -- -- 61
2017-10-10 05:00:00 12.1 4 Sudeste 11 Sur 0 -- -- 60
2017-10-10 04:00:00 11.9 4 Sudeste 12 Sudeste 0 -- -- 47
2017-10-10 03:00:00 12.3 5 Sudeste 11 Sur 0 -- -- 34
2017-10-10 02:00:00 11.9 3 Sudeste 16 Sur 0 -- -- 30
2017-10-10 01:00:00 11.8 0 Calma 5 Nordeste 0 -- -- 29
2017-10-10 00:00:00 12.7 3 Nordeste 8 Norte 0 -- -- 26
2017-10-09 23:00:00 15.1 0 Calma 2 Sur 0 -- -- 26
2017-10-09 22:00:00 17 2 Sur 4 Sur 0 -- -- 23
2017-10-09 21:00:00 19.3 0 Calma -- -- 0 -- -- 22
2017-10-09 20:00:00 22.8 0 Calma 11 Sudoeste 0 -- -- 18
2017-10-09 19:00:00 25.5 5 Sudoeste 16 Noroeste 0 -- -- 15
2017-10-09 18:00:00 26.3 5 Oeste 24 Noroeste 0 -- -- 14
2017-10-09 17:00:00 26.2 5 Oeste 26 Norte 0 -- -- 15
2017-10-09 16:00:00 26.5 9 Noroeste 23 Norte 0 -- -- 14
2017-10-09 15:00:00 26.4 8 Norte 19 Nordeste 0 -- -- 15
2017-10-09 14:00:00 24.8 5 Oeste 12 Sur 0 -- -- 19
2017-10-09 13:00:00 23.3 5 Sudeste 9 Sur 0 -- -- 24
2017-10-09 12:00:00 19.9 3 Sudeste 10 Nordeste 0 -- -- 29
2017-10-09 11:00:00 15.9 6 Nordeste 13 Nordeste 0 -- -- 38
2017-10-09 10:00:00 11.2 4 Norte 10 Norte 0 -- -- 49
2017-10-09 09:00:00 8.2 8 Nordeste 10 Nordeste 0 -- -- 53
2017-10-09 08:00:00 8.6 0 Calma 2 Sudeste 0 -- -- 50
2017-10-09 07:00:00 10.4 2 Norte 14 Norte 0 -- -- 45
2017-10-09 06:00:00 10.7 8 Nordeste 14 Nordeste 0 -- -- 44
2017-10-09 05:00:00 11 4 Noroeste 10 Norte 0 -- -- 45
2017-10-09 04:00:00 10.8 0 Calma 5 Norte 0 -- -- 48
2017-10-09 03:00:00 11.6 0 Calma 5 Sur 0 -- -- 48
2017-10-09 02:00:00 12.4 0 Calma 5 Nordeste 0 -- -- 47
2017-10-09 01:00:00 13.4 0 Calma 5 Nordeste 0 -- -- 45
2017-10-09 00:00:00 15 4 Nordeste 7 Norte 0 -- -- 40
2017-10-08 23:00:00 16.2 2 Noroeste 4 Oeste 0 -- -- 40
2017-10-08 22:00:00 18 0 Calma 4 Norte 0 -- -- 37
2017-10-08 21:00:00 20 0 Calma 5 Oeste 0 -- -- 34
2017-10-08 20:00:00 22.3 3 Noroeste 18 Noroeste 0 -- -- 30
2017-10-08 19:00:00 24.2 10 Noroeste 22 Noroeste 0 -- -- 30
2017-10-08 18:00:00 25.1 9 Noroeste 22 Noroeste 0 -- -- 30
2017-10-08 17:00:00 25.6 8 Oeste 21 Noroeste 0 -- -- 25
2017-10-08 16:00:00 25 7 Noroeste 22 Oeste 0 -- -- 25
2017-10-08 15:00:00 24 9 Noroeste 24 Noroeste 0 -- -- 33
2017-10-08 14:00:00 22.9 9 Noroeste 22 Noroeste 0 -- -- 44
2017-10-08 13:00:00 21.1 3 Sur 12 Sudoeste 0 -- -- 57
2017-10-08 12:00:00 17.9 2 Nordeste 11 Este 0 -- -- 69
2017-10-08 11:00:00 14.7 8 Nordeste 15 Norte 0 -- -- 83
2017-10-08 10:00:00 12.6 9 Nordeste 14 Nordeste 0 -- -- 91
2017-10-08 09:00:00 11.7 10 Nordeste 14 Nordeste 0 -- -- 92
2017-10-08 08:00:00 11.6 6 Nordeste 10 Nordeste 0 -- -- 91
2017-10-08 07:00:00 11.4 5 Nordeste 8 Nordeste 0 -- -- 87
2017-10-08 06:00:00 12.5 4 Nordeste 6 Nordeste 0 -- -- 82
2017-10-08 05:00:00 13.8 0 Calma 21 Sudeste 0 -- -- 83
2017-10-08 04:00:00 14.3 11 Sudeste 31 Sur 0 -- -- 83
2017-10-08 03:00:00 14.5 15 Sudeste 28 Sudeste 0 -- -- 83
2017-10-08 02:00:00 14.5 15 Sudeste 31 Sudeste 0 -- -- 82
2017-10-08 01:00:00 14.9 15 Sudeste 29 Sudeste 0 -- -- 77
2017-10-08 00:00:00 15.5 11 Sudeste 20 Sudeste 0 -- -- 71
2017-10-07 23:00:00 16.8 10 Sudeste 21 Sudeste 0 -- -- 63
2017-10-07 22:00:00 18.3 8 Sudeste 15 Sudeste 0 -- -- 55
2017-10-07 21:00:00 19.6 7 Sudeste 12 Sudeste 0 -- -- 48
2017-10-07 20:00:00 21.7 5 Sudeste 30 Sudeste 0 -- -- 42
2017-10-07 19:00:00 23.8 9 Sudeste 23 Sudeste 0 -- -- 39
2017-10-07 18:00:00 24.7 10 Sudeste 30 Sur 0 -- -- 38
2017-10-07 17:00:00 25.4 12 Sudeste 27 Sur 0 -- -- 36
2017-10-07 16:00:00 25.4 10 Sudeste 24 Sur 0 -- -- 36
2017-10-07 15:00:00 24.5 7 Sur 25 Sur 0 -- -- 38
2017-10-07 14:00:00 23.1 11 Sur 28 Sudeste 0 -- -- 41
2017-10-07 13:00:00 21.5 13 Sur 26 Sur 0 -- -- 43
2017-10-07 12:00:00 19.4 11 Sudeste 21 Sudeste 0 -- -- 46
2017-10-07 11:00:00 14.5 12 Nordeste 23 Este 0 -- -- 41
2017-10-07 10:00:00 11.7 14 Nordeste 21 Nordeste 0 -- -- 46
2017-10-07 09:00:00 9.8 14 Nordeste 25 Nordeste 0 -- -- 47
2017-10-07 08:00:00 9.5 13 Nordeste 26 Nordeste 0 -- -- 48
2017-10-07 07:00:00 9.6 14 Nordeste 19 Nordeste 0 -- -- 51
2017-10-07 06:00:00 10.6 12 Nordeste 26 Nordeste 0 -- -- 52
2017-10-07 05:00:00 10.9 6 Este 26 Nordeste 0 -- -- 52
2017-10-07 04:00:00 11.4 14 Nordeste 27 Nordeste 0 -- -- 54
2017-10-07 03:00:00 12.6 20 Nordeste 29 Nordeste 0 -- -- 53
2017-10-07 02:00:00 13.6 14 Norte 27 Norte 0 -- -- 49
2017-10-07 01:00:00 15 14 Nordeste 30 Nordeste 0 -- -- 44
2017-10-07 00:00:00 15.9 14 Nordeste 24 Nordeste 0 -- -- 43
2017-10-06 23:00:00 17.1 17 Nordeste 29 Norte 0 -- -- 44
2017-10-06 22:00:00 18.1 9 Nordeste 17 Nordeste 0 -- -- 37
2017-10-06 21:00:00 19.9 10 Nordeste 15 Nordeste 0 -- -- 34
2017-10-06 20:00:00 23 7 Norte 24 Nordeste 0 -- -- 28
2017-10-06 19:00:00 25.8 15 Norte 28 Nordeste 0 -- -- 25
2017-10-06 18:00:00 26.8 15 Norte 32 Norte 0 -- -- 20
2017-10-06 17:00:00 27.2 18 Nordeste 34 Norte 0 -- -- 18
2017-10-06 16:00:00 27.6 17 Nordeste 36 Nordeste 0 -- -- 18
2017-10-06 15:00:00 26.8 18 Nordeste 32 Norte 0 -- -- 19
2017-10-06 14:00:00 25 17 Nordeste 32 Nordeste 0 -- -- 21
2017-10-06 13:00:00 22.6 19 Nordeste 35 Norte 0 -- -- 30
2017-10-06 12:00:00 20.4 19 Nordeste 33 Nordeste 0 -- -- 36
2017-10-06 11:00:00 17.2 14 Nordeste 33 Nordeste 0 -- -- 49
2017-10-06 10:00:00 14.5 16 Nordeste 30 Nordeste 0 -- -- 55
2017-10-06 09:00:00 13 13 Nordeste 24 Nordeste 0 -- -- 60
2017-10-06 08:00:00 13.2 15 Nordeste 24 Nordeste 0 -- -- 61
2017-10-06 07:00:00 14.1 12 Nordeste 26 Norte 0 -- -- 60
2017-10-06 06:00:00 14.9 12 Nordeste 24 Norte 0 -- -- 65
2017-10-06 05:00:00 15.5 9 Norte 22 Nordeste 0 -- -- 65
2017-10-06 04:00:00 17 8 Nordeste 14 Nordeste 0 -- -- 57
2017-10-06 03:00:00 17.7 7 Nordeste 13 Nordeste 0 -- -- 51
2017-10-06 02:00:00 18.8 6 Nordeste 15 Nordeste 0 -- -- 48
2017-10-06 01:00:00 19.3 3 Norte 13 Norte 0 -- -- 45
2017-10-06 00:00:00 18.8 4 Nordeste 13 Este 0 -- -- 46
2017-10-05 23:00:00 19.5 0 Calma 2 Sudoeste 0 -- -- 44
2017-10-05 22:00:00 21 0 Calma -- -- 0 -- -- 41
2017-10-05 21:00:00 23.2 0 Calma 2 Sur 0 -- -- 38
2017-10-05 20:00:00 26.1 0 Calma 13 Noroeste 0 -- -- 33
2017-10-05 19:00:00 28.5 5 Norte 15 Noroeste 0 -- -- 29
2017-10-05 18:00:00 28.6 8 Norte 22 Norte 0 -- -- 29
2017-10-05 17:00:00 28.9 6 Noroeste 21 Norte 0 -- -- 29
2017-10-05 16:00:00 29.1 7 Nordeste 19 Norte 0 -- -- 28
2017-10-05 15:00:00 27.5 5 Oeste 19 Norte 0 -- -- 32
2017-10-05 14:00:00 26.1 7 Noroeste 17 Oeste 0 -- -- 36
2017-10-05 13:00:00 23.9 4 Oeste 9 Sudoeste 0 -- -- 42
2017-10-05 12:00:00 21.7 4 Sur 10 Sudeste 0 -- -- 51
2017-10-05 11:00:00 18.6 5 Sudeste 11 Sudeste 0 -- -- 68
2017-10-05 10:00:00 15.7 7 Nordeste 10 Norte 0 -- -- 82
2017-10-05 09:00:00 12.8 6 Nordeste 10 Nordeste 0 -- -- 89
2017-10-05 08:00:00 12.4 6 Este 9 Nordeste 0 -- -- 88
2017-10-05 07:00:00 12.3 2 Este 8 Este 0 -- -- 82
2017-10-05 06:00:00 13.8 4 Este 9 Este 0 -- -- 81
2017-10-05 05:00:00 15 2 Este 9 Este 0 -- -- 79
2017-10-05 04:00:00 15.8 4 Sudeste 11 Sur 0 -- -- 76
2017-10-05 03:00:00 16.6 2 Sudoeste 25 Sudeste 0 -- -- 72
2017-10-05 02:00:00 17.1 15 Sudeste 28 Sudeste 0 -- -- 69
2017-10-05 01:00:00 18.1 18 Sudeste 31 Sudeste 0 -- -- 65
2017-10-05 00:00:00 18.9 15 Sudeste 26 Este 0 -- -- 55
2017-10-04 23:00:00 20.2 9 Sudeste 16 Sudeste 0 -- -- 52
2017-10-04 22:00:00 21 4 Sur 14 Sudeste 0 -- -- 48
2017-10-04 21:00:00 22.2 8 Sudeste 12 Sudeste 0 -- -- 47
2017-10-04 20:00:00 24.4 4 Sudeste 12 Sur 0 -- -- 40
2017-10-04 19:00:00 26.2 6 Sur 17 Sur 0 -- -- 38
2017-10-04 18:00:00 27.8 6 Sur 18 Sudeste 0 -- -- 35
2017-10-04 17:00:00 27.8 9 Sudeste 24 Sur 0 -- -- 36
2017-10-04 16:00:00 28.3 12 Sudeste 27 Sudeste 0 -- -- 37
2017-10-04 15:00:00 27.3 14 Sudeste 30 Sur 0 -- -- 40
2017-10-04 14:00:00 25.8 18 Sur 31 Sur 0 -- -- 45
2017-10-04 13:00:00 23.8 22 Sudeste 37 Sudeste 0 -- -- 51
2017-10-04 12:00:00 21.9 24 Sudeste 39 Sur 0 -- -- 58
2017-10-04 11:00:00 19.8 20 Sudeste 39 Sur 0 -- -- 65
2017-10-04 10:00:00 17.2 19 Sudeste 35 Sudeste 0 -- -- 75
2017-10-04 09:00:00 15.4 5 Este 21 Sur 0 -- -- 81
2017-10-04 08:00:00 15.6 12 Sudeste 25 Sudeste 0 -- -- 78
2017-10-04 07:00:00 15.8 8 Sudeste 26 Sudeste 0 -- -- 76
2017-10-04 06:00:00 16.5 14 Sudeste 30 Sudeste 0 -- -- 74
2017-10-04 05:00:00 17.1 15 Sudeste 27 Sudeste 0 -- -- 72
2017-10-04 04:00:00 17.5 15 Sudeste 30 Sudeste 0 -- -- 71
2017-10-04 03:00:00 18.1 17 Sudeste 32 Este 0 -- -- 70
2017-10-04 02:00:00 19 15 Sudeste 32 Este 0 -- -- 67
2017-10-04 01:00:00 20 16 Sudeste 26 Este 0 -- -- 61
2017-10-04 00:00:00 20.2 6 Sur 14 Sudeste 0 -- -- 57
2017-10-03 23:00:00 21.2 3 Sudeste 10 Sudeste 0 -- -- 53
2017-10-03 22:00:00 22.4 0 Calma 9 Sudeste 0 -- -- 48
2017-10-03 21:00:00 23.8 5 Nordeste 14 Nordeste 0 -- -- 46
2017-10-03 20:00:00 25.9 3 Noroeste 19 Noroeste 0 -- -- 39
2017-10-03 19:00:00 27.9 9 Noroeste 24 Noroeste 0 -- -- 35
2017-10-03 18:00:00 28.2 12 Noroeste 24 Norte 0 -- -- 34
2017-10-03 17:00:00 28.6 6 Noroeste 18 Noroeste 0 -- -- 33
2017-10-03 16:00:00 28.2 7 Noroeste 18 Oeste 0 -- -- 37
2017-10-03 15:00:00 27.7 3 Sur 13 Noroeste 0 -- -- 40
2017-10-03 14:00:00 26 7 Oeste 14 Oeste 0 -- -- 42
2017-10-03 13:00:00 24 6 Oeste 11 Noroeste 0 -- -- 48
2017-10-03 12:00:00 22 3 Sur 13 Sudeste 0 -- -- 56
2017-10-03 11:00:00 19.1 6 Sudeste 11 Sur 0 -- -- 69
2017-10-03 10:00:00 15.5 7 Sudeste 13 Sudeste 0 -- -- 81
2017-10-03 09:00:00 12.7 0 Calma 6 Este 0 -- -- 84
2017-10-03 08:00:00 12.8 2 Sudeste 5 Sudeste 0 -- -- 81
2017-10-03 07:00:00 13.2 0 Calma 4 Este 0 -- -- 78
2017-10-03 06:00:00 14 2 Este 6 Nordeste 0 -- -- 75
2017-10-03 05:00:00 15.1 0 Calma 14 Sudeste 0 -- -- 72
2017-10-03 04:00:00 15.3 3 Sur 9 Sur 0 -- -- 69
2017-10-03 03:00:00 16.1 0 Calma 7 Sur 0 -- -- 64
2017-10-03 02:00:00 17.4 3 Sur 10 Oeste 0 -- -- 61
2017-10-03 01:00:00 18.3 4 Sur 11 Sudeste 0 -- -- 59
2017-10-03 00:00:00 19.1 5 Sudeste 12 Sudeste 0 -- -- 58
2017-10-02 23:00:00 19.8 3 Este 10 Este 0 -- -- 56
2017-10-02 22:00:00 20.4 3 Nordeste 8 Norte 0 -- -- 53
2017-10-02 21:00:00 22.4 6 Este 13 Este 0 -- -- 50
2017-10-02 20:00:00 23.9 8 Este 18 Este 0 -- -- 47
2017-10-02 19:00:00 25.8 13 Este 25 Nordeste 0 -- -- 44
2017-10-02 18:00:00 26.3 8 Nordeste 20 Nordeste 0 -- -- 43
2017-10-02 17:00:00 26.9 8 Este 26 Nordeste 0 -- -- 42
2017-10-02 16:00:00 26.9 13 Nordeste 30 Nordeste 0 -- -- 42
2017-10-02 15:00:00 25.7 13 Nordeste 30 Nordeste 0 -- -- 45
2017-10-02 14:00:00 24.8 13 Nordeste 24 Nordeste 0 -- -- 46
2017-10-02 13:00:00 23 14 Nordeste 28 Nordeste 0 -- -- 48
2017-10-02 12:00:00 21 15 Nordeste 29 Nordeste 0 -- -- 52
2017-10-02 11:00:00 18.9 12 Nordeste 21 Nordeste 0 -- -- 57
2017-10-02 10:00:00 16 7 Nordeste 13 Nordeste 0 -- -- 71
2017-10-02 09:00:00 13.4 5 Nordeste 9 Nordeste 0 -- -- 79
2017-10-02 08:00:00 13.3 5 Nordeste 10 Nordeste 0 -- -- 77
2017-10-02 07:00:00 13.8 5 Nordeste 9 Nordeste 0 -- -- 74
2017-10-02 06:00:00 14.8 7 Nordeste 12 Nordeste 0 -- -- 69
2017-10-02 05:00:00 15.3 5 Nordeste 11 Nordeste 0 -- -- 69
2017-10-02 04:00:00 15.3 8 Nordeste 12 Nordeste 0 -- -- 69
2017-10-02 03:00:00 14.9 6 Este 9 Este 0 -- -- 68
2017-10-02 02:00:00 15.5 5 Nordeste 8 Nordeste 0 -- -- 66
2017-10-02 01:00:00 16.1 4 Nordeste 10 Este 0 -- -- 62
2017-10-02 00:00:00 16.9 5 Nordeste 13 Nordeste 0 -- -- 60
2017-10-01 23:00:00 17.2 7 Nordeste 10 Nordeste 0 -- -- 58
2017-10-01 22:00:00 17.9 5 Nordeste 10 Nordeste 0 -- -- 55
2017-10-01 21:00:00 19.4 6 Nordeste 13 Nordeste 0 -- -- 53
2017-10-01 20:00:00 21.1 10 Nordeste 26 Nordeste 0 -- -- 49
2017-10-01 19:00:00 22.8 17 Nordeste 33 Nordeste 0 -- -- 45
2017-10-01 18:00:00 23.2 16 Nordeste 35 Nordeste 0 -- -- 43
2017-10-01 17:00:00 23.9 18 Nordeste 32 Nordeste 0 -- -- 41
2017-10-01 16:00:00 23.6 14 Nordeste 31 Norte 0 -- -- 42
2017-10-01 15:00:00 22.3 13 Norte 26 Norte 0 -- -- 45
2017-10-01 14:00:00 20.4 12 Nordeste 26 Nordeste 0 -- -- 51
2017-10-01 13:00:00 20 11 Nordeste 20 Nordeste 0 -- -- 54
2017-10-01 12:00:00 18.7 12 Nordeste 19 Nordeste 0 -- -- 62
2017-10-01 11:00:00 17.2 10 Nordeste 16 Nordeste 0 -- -- 67
2017-10-01 10:00:00 15.7 8 Nordeste 15 Nordeste 0 -- -- 73
2017-10-01 09:00:00 14.9 9 Nordeste 14 Nordeste 0 -- -- 75
2017-10-01 08:00:00 14.6 6 Nordeste 14 Nordeste 0 -- -- 75
2017-10-01 07:00:00 14.6 6 Nordeste 15 Nordeste 0 -- -- 74
2017-10-01 06:00:00 14.6 8 Nordeste 15 Nordeste 0 -- -- 72
2017-10-01 05:00:00 14.9 6 Nordeste 10 Este 0 -- -- 69
2017-10-01 04:00:00 15.8 9 Este 13 Este 0 -- -- 68
2017-10-01 03:00:00 17.1 10 Este 23 Nordeste 0 -- -- 61
2017-10-01 02:00:00 18 14 Nordeste 22 Norte 0 -- -- 54
2017-10-01 01:00:00 18.5 9 Nordeste 15 Nordeste 0 -- -- 48
2017-10-01 00:00:00 17.5 2 Este 6 Nordeste 0 -- -- 41
2017-09-30 23:00:00 18.9 0 Calma 4 Sur 0 -- -- 39
2017-09-30 22:00:00 20.3 0 Calma 4 Este 0 -- -- 36
2017-09-30 21:00:00 22.1 0 Calma 12 Noroeste 0 -- -- 34
2017-09-30 20:00:00 24.3 6 Noroeste 31 Noroeste 0 -- -- 34
2017-09-30 19:00:00 25.5 14 Noroeste 32 Noroeste 0 -- -- 34
2017-09-30 18:00:00 25.8 17 Noroeste 30 Noroeste 0 -- -- 34
2017-09-30 17:00:00 26.5 12 Noroeste 30 Noroeste 0 -- -- 35
2017-09-30 16:00:00 26.1 14 Noroeste 29 Noroeste 0 -- -- 35
2017-09-30 15:00:00 25.5 10 Noroeste 23 Noroeste 0 -- -- 37
2017-09-30 14:00:00 24.3 6 Oeste 16 Oeste 0 -- -- 41
2017-09-30 13:00:00 23.5 7 Sudoeste 14 Sur 0 -- -- 44
2017-09-30 12:00:00 21.1 6 Sur 10 Sur 0 -- -- 54
2017-09-30 11:00:00 18.8 2 Sur 7 Sur 0 -- -- 63
2017-09-30 10:00:00 16 4 Sur 8 Sur 0 -- -- 75
2017-09-30 09:00:00 14.2 0 Calma 7 Sur 0 -- -- 80
2017-09-30 08:00:00 14.1 4 Sur 10 Sur 0 -- -- 78
2017-09-30 07:00:00 14.5 4 Sur 13 Sur 0 -- -- 77
2017-09-30 06:00:00 14.8 5 Sur 18 Sudeste 0 -- -- 74
2017-09-30 05:00:00 15.5 10 Sudeste 20 Sudeste 0 -- -- 71
2017-09-30 04:00:00 16.1 10 Sudeste 21 Sudeste 0 -- -- 66
2017-09-30 03:00:00 16.3 9 Sudeste 22 Sudeste 0 -- -- 60
2017-09-30 02:00:00 16.9 9 Sudeste 21 Sudeste 0 -- -- 49
2017-09-30 01:00:00 16.9 5 Sudeste 20 Sudeste 0 -- -- 49
2017-09-30 00:00:00 17.7 0 Calma 0 Calma 0 -- -- 47
2017-09-29 23:00:00 18.9 0 Calma 2 Noroeste 0 -- -- 45
2017-09-29 22:00:00 20.3 0 Calma 4 Oeste 0 -- -- 40
2017-09-29 21:00:00 22.5 0 Calma 6 Noroeste 0 -- -- 36
2017-09-29 20:00:00 24.8 4 Noroeste 9 Noroeste 0 -- -- 31
2017-09-29 19:00:00 26.6 4 Noroeste 14 Noroeste 0 -- -- 29
2017-09-29 18:00:00 27.1 6 Norte 16 Norte 0 -- -- 28
2017-09-29 17:00:00 27.7 7 Norte 15 Norte 0 -- -- 26
2017-09-29 16:00:00 27 6 Noroeste 20 Norte 0 -- -- 32
2017-09-29 15:00:00 27.6 7 Sur 19 Norte 0 -- -- 33
2017-09-29 14:00:00 26 7 Este 12 Sudeste 0 -- -- 41
2017-09-29 13:00:00 23.4 4 Oeste 12 Sudeste 0 -- -- 48
2017-09-29 12:00:00 21.2 5 Sudeste 9 Nordeste 0 -- -- 61
2017-09-29 11:00:00 18.2 5 Este 11 Nordeste 0 -- -- 74
2017-09-29 10:00:00 15.5 7 Nordeste 12 Nordeste 0 -- -- 83
2017-09-29 09:00:00 13.2 3 Nordeste 8 Este 0 -- -- 88
2017-09-29 08:00:00 13.2 0 Calma 14 Sudeste 0 -- -- 85
2017-09-29 07:00:00 13.6 4 Sudeste 9 Sur 0 -- -- 85
2017-09-29 06:00:00 14.2 0 Calma 20 Sudeste 0 -- -- 82
2017-09-29 05:00:00 14.8 8 Sudeste 17 Sudeste 0 -- -- 80
2017-09-29 04:00:00 15.5 10 Sudeste 26 Sudeste 0 -- -- 79
2017-09-29 03:00:00 16 12 Sudeste 25 Sudeste 0 -- -- 78
2017-09-29 02:00:00 16.7 13 Sudeste 30 Sudeste 0 -- -- 75
2017-09-29 01:00:00 17.6 14 Sudeste 27 Sur 0 -- -- 71
2017-09-29 00:00:00 18.5 10 Sudeste 22 Sudeste 0 -- -- 59
2017-09-28 23:00:00 19.5 9 Sudeste 19 Sudeste 0 -- -- 46
2017-09-28 22:00:00 19.8 3 Sur 5 Sur 0 -- -- 36
2017-09-28 21:00:00 22 2 Sur 7 Sur 0 -- -- 30
2017-09-28 20:00:00 25 3 Sur 10 Sur 0 -- -- 26
2017-09-28 19:00:00 27.8 7 Sur 15 Sur 0 -- -- 23
2017-09-28 18:00:00 27.9 5 Sur 25 Sur 0 -- -- 23
2017-09-28 17:00:00 28.8 6 Sudoeste 16 Sur 0 -- -- 24
2017-09-28 16:00:00 27.9 9 Sur 16 Sur 0 -- -- 25
2017-09-28 15:00:00 27.4 7 Este 20 Sudeste 0 -- -- 28
2017-09-28 14:00:00 25.9 8 Sudoeste 16 Sur 0 -- -- 27
2017-09-28 13:00:00 23.9 7 Sur 15 Sudeste 0 -- -- 43
2017-09-28 12:00:00 21.6 7 Sudeste 18 Sudeste 0 -- -- 59
2017-09-28 11:00:00 18.7 12 Sudeste 19 Sudeste 0 -- -- 71
2017-09-28 10:00:00 15.6 4 Este 10 Nordeste 0 -- -- 86
2017-09-28 09:00:00 13 5 Este 7 Este 0 -- -- 91
2017-09-28 08:00:00 12.8 4 Sudeste 6 Este 0 -- -- 89
2017-09-28 07:00:00 13.3 3 Nordeste 10 Este 0 -- -- 86
2017-09-28 06:00:00 14 4 Este 9 Nordeste 0 -- -- 87
2017-09-28 05:00:00 14.4 0 Calma 13 Sudeste 0 -- -- 84
2017-09-28 04:00:00 14.6 6 Sudeste 15 Sudeste 0 -- -- 82
2017-09-28 03:00:00 15.2 7 Sudeste 20 Sudeste 0 -- -- 76
2017-09-28 02:00:00 15.4 10 Sudeste 19 Sudeste 0 -- -- 63
2017-09-28 01:00:00 14.4 5 Sur 15 Sur 0 -- -- 47
2017-09-28 00:00:00 15.3 0 Calma 3 Norte 0 -- -- 41
2017-09-27 23:00:00 16.7 0 Calma 4 Norte 0 -- -- 38
2017-09-27 22:00:00 18 0 Calma 5 Noroeste 0 -- -- 36
2017-09-27 21:00:00 20.2 0 Calma 3 Sur 0 -- -- 33
2017-09-27 20:00:00 22.2 3 Sudoeste 15 Sudoeste 0 -- -- 30
2017-09-27 19:00:00 23.6 7 Sudoeste 18 Sudoeste 0 -- -- 26
2017-09-27 18:00:00 24.6 7 Sudoeste 19 Sudoeste 0 -- -- 28
2017-09-27 17:00:00 25.3 9 Sudoeste 18 Sudoeste 0 -- -- 28
2017-09-27 16:00:00 25.9 6 Sudoeste 18 Sur 0 -- -- 29
2017-09-27 15:00:00 25 9 Sur 39 Sur 0 -- -- 32
2017-09-27 14:00:00 23.6 10 Sur 23 Sur 0 -- -- 43
2017-09-27 13:00:00 23 11 Sur 28 Sur 0 -- -- 48
2017-09-27 12:00:00 20.8 14 Sur 24 Sudeste 0 -- -- 61
2017-09-27 11:00:00 18.4 13 Sudeste 26 Sudeste -- -- -- 72
2017-09-27 10:00:00 16 12 Sudeste 24 Sudeste 0 -- -- 82
2017-09-27 09:00:00 13.6 2 Sur 14 Este 0 -- -- 88
2017-09-27 08:00:00 13.6 7 Sudeste 22 Sudeste 0 -- -- 85
2017-09-27 07:00:00 14 12 Sudeste 24 Sudeste 0 -- -- 85
2017-09-27 06:00:00 14.1 12 Sudeste 26 Sudeste 0 -- -- 84
2017-09-27 05:00:00 14.3 12 Sudeste 23 Sudeste 0 -- -- 82
2017-09-27 04:00:00 14.7 16 Sudeste 29 Sudeste 0 -- -- 81
2017-09-27 03:00:00 14.9 17 Sudeste 27 Sudeste 0 -- -- 79
2017-09-27 02:00:00 15.4 15 Sudeste 27 Sudeste 0 -- -- 77
2017-09-27 01:00:00 16.1 14 Sudeste 26 Sudeste 0 -- -- 74
2017-09-27 00:00:00 16.3 10 Sudeste 24 Sudeste 0 -- -- 56
2017-09-26 23:00:00 17.1 0 Calma -- -- 0 -- -- 44
2017-09-26 22:00:00 18.7 0 Calma 5 Este 0 -- -- 42
2017-09-26 21:00:00 20.8 3 Nordeste 9 Norte 0 -- -- 39
2017-09-26 20:00:00 23 4 Noroeste 15 Noroeste 0 -- -- 36
2017-09-26 19:00:00 25.6 4 Noroeste 10 Sudoeste 0 -- -- 31
2017-09-26 18:00:00 26.1 4 Sudoeste 18 Este 0 -- -- 30
2017-09-26 17:00:00 26.3 5 Sudeste 16 Nordeste 0 -- -- 30
2017-09-26 16:00:00 26 5 Sur 14 Sur 0 -- -- 31
2017-09-26 15:00:00 25.1 7 Sur 19 Sudoeste 0 -- -- 33
2017-09-26 14:00:00 24 5 Sudeste 13 Sur 0 -- -- 39
2017-09-26 13:00:00 21.7 4 Sur 14 Sudeste 0 -- -- 49
2017-09-26 12:00:00 19.8 6 Sur 18 Sur 0 -- -- 57
2017-09-26 11:00:00 -- -- -- -- -- -- -- -- --
2017-09-26 10:00:00 13.3 11 Nordeste 19 Nordeste 0 -- -- 71
2017-09-26 09:00:00 11.4 14 Nordeste 21 Nordeste 0 -- -- 78
2017-09-26 08:00:00 11.4 15 Nordeste 21 Nordeste 0 -- -- 78
2017-09-26 07:00:00 11.9 12 Nordeste 21 Nordeste 0 -- -- 76
2017-09-26 06:00:00 12.3 14 Nordeste 22 Nordeste 0 -- -- 73
2017-09-26 05:00:00 13.3 12 Nordeste 17 Nordeste 0 -- -- 68
2017-09-26 04:00:00 13.7 10 Nordeste 18 Nordeste 0 -- -- 66
2017-09-26 03:00:00 14 12 Nordeste 18 Nordeste 0 -- -- 65
2017-09-26 02:00:00 14.9 6 Este 24 Nordeste 0 -- -- 61
2017-09-26 01:00:00 15.7 14 Nordeste 26 Nordeste 0 -- -- 57
2017-09-26 00:00:00 16.5 15 Nordeste 26 Norte 0 -- -- 45
2017-09-25 23:00:00 17.8 12 Nordeste 23 Nordeste 0 -- -- 38
2017-09-25 22:00:00 20 11 Norte 19 Nordeste 0 -- -- 34
2017-09-25 21:00:00 21.6 7 Noroeste 16 Noroeste 0 -- -- 26
2017-09-25 20:00:00 23.5 6 Noroeste 21 Noroeste 0 -- -- 25
2017-09-25 19:00:00 25.2 11 Noroeste 31 Noroeste 0 -- -- 23
2017-09-25 18:00:00 25.7 12 Noroeste 36 Noroeste 0 -- -- 20
2017-09-25 17:00:00 25.8 14 Noroeste 39 Noroeste 0 -- -- 24
2017-09-25 16:00:00 25.8 12 Oeste 32 Noroeste 0 -- -- 30
2017-09-25 15:00:00 25 10 Noroeste 32 Noroeste 0 -- -- 37
2017-09-25 14:00:00 24 13 Noroeste 28 Noroeste 0 -- -- 36
2017-09-25 13:00:00 22.7 14 Noroeste 29 Noroeste 0 -- -- 41
2017-09-25 12:00:00 21.9 9 Oeste 27 Noroeste 0 -- -- 37
2017-09-25 11:00:00 20.2 7 Sudoeste 14 Oeste 0 -- -- 36
2017-09-25 10:00:00 16.2 3 Sudoeste 6 Sudoeste 0 -- -- 37
2017-09-25 09:00:00 13.3 0 Calma 5 Sur 0 -- -- 44
2017-09-25 08:00:00 12.9 0 Calma 5 Sudeste 0 -- -- 46
2017-09-25 07:00:00 12.8 0 Calma 4 Sur 0 -- -- 54
2017-09-25 06:00:00 13.6 0 Calma 4 Sudeste 0 -- -- 53
2017-09-25 05:00:00 14.3 3 Sur 5 Sur 0 -- -- 52
2017-09-25 04:00:00 14.8 0 Calma 3 Sur 0 -- -- 50
2017-09-25 03:00:00 15.3 0 Calma 5 Sur 0 -- -- 48
2017-09-25 02:00:00 15.8 0 Calma 2 Oeste 0 -- -- 47
2017-09-25 01:00:00 16.6 0 Calma 2 Oeste 0 -- -- 43
2017-09-25 00:00:00 17.8 0 Calma -- -- 0 -- -- 41
2017-09-24 23:00:00 19.3 0 Calma -- -- 0 -- -- 38
2017-09-24 22:00:00 21.1 0 Calma 5 Nordeste 0 -- -- 35
2017-09-24 21:00:00 23.3 3 Nordeste 6 Noroeste 0 -- -- 32
2017-09-24 20:00:00 25.5 6 Noroeste 15 Noroeste 0 -- -- 29
2017-09-24 19:00:00 27.5 8 Noroeste 22 Noroeste 0 -- -- 28
2017-09-24 18:00:00 28.1 8 Oeste 24 Noroeste 0 -- -- 26
2017-09-24 17:00:00 28 10 Sudoeste 22 Oeste 0 -- -- 26
2017-09-24 16:00:00 28 10 Oeste 23 Noroeste 0 -- -- 27
2017-09-24 15:00:00 27.5 8 Sudoeste 23 Sudoeste 0 -- -- 29
2017-09-24 14:00:00 26.6 9 Sudoeste 24 Sudoeste 0 -- -- 30
2017-09-24 13:00:00 25.1 7 Sur 18 Sur 0 -- -- 39
2017-09-24 12:00:00 22.6 7 Sudeste 14 Sudeste 0 -- -- 50
2017-09-24 11:00:00 19.1 4 Sur 11 Sudeste 0 -- -- 62
2017-09-24 10:00:00 15.8 4 Sur 9 Sur 0 -- -- 68
2017-09-24 09:00:00 12.5 0 Calma 3 Este 0 -- -- 80
2017-09-24 08:00:00 12.1 0 Calma 4 Nordeste 0 -- -- 76
2017-09-24 07:00:00 12.5 3 Nordeste 6 Este 0 -- -- 74
2017-09-24 06:00:00 13.5 2 Nordeste 8 Sudeste 0 -- -- 67
2017-09-24 05:00:00 14.8 3 Sudeste 14 Sur 0 -- -- 64
2017-09-24 04:00:00 15.2 6 Sur 15 Sur 0 -- -- 61
2017-09-24 03:00:00 15.5 6 Sudeste 13 Sudeste 0 -- -- 55
2017-09-24 02:00:00 15.4 3 Sudoeste 8 Sudeste 0 -- -- 53
2017-09-24 01:00:00 15.5 0 Calma 7 Sur 0 -- -- 50
2017-09-24 00:00:00 16.8 2 Sudeste 6 Sudeste 0 -- -- 45
2017-09-23 23:00:00 18.4 0 Calma 3 Sur 0 -- -- 40
2017-09-23 22:00:00 20.3 0 Calma 3 Sudeste 0 -- -- 38
2017-09-23 21:00:00 22.6 0 Calma 8 Sudoeste 0 -- -- 33
2017-09-23 20:00:00 25.1 3 Sudoeste 12 Oeste 0 -- -- 30
2017-09-23 19:00:00 27.2 3 Sudoeste 16 Sudoeste 0 -- -- 27
2017-09-23 18:00:00 28.2 9 Sur 18 Sudeste 0 -- -- 25
2017-09-23 17:00:00 29 8 Sur 19 Sur 0 -- -- 28
2017-09-23 16:00:00 28 11 Sudeste 27 Sur 0 -- -- 30
2017-09-23 15:00:00 26.4 10 Sur 20 Sudeste 0 -- -- 34
2017-09-23 14:00:00 24.7 12 Sur 24 Sur 0 -- -- 40
2017-09-23 13:00:00 22.7 15 Sur 23 Sur 0 -- -- 45
2017-09-23 12:00:00 20.3 10 Sudeste 22 Sudeste 0 -- -- 58
2017-09-23 11:00:00 -- -- -- -- -- -- -- -- --
2017-09-23 10:00:00 -- -- -- -- -- -- -- -- --
2017-09-23 09:00:00 -- -- -- -- -- -- -- -- --
2017-09-23 08:00:00 -- -- -- -- -- -- -- -- --
2017-09-23 07:00:00 -- -- -- -- -- -- -- -- --
2017-09-23 06:00:00 -- -- -- -- -- -- -- -- --
2017-09-23 05:00:00 -- -- -- -- -- -- -- -- --
2017-09-23 04:00:00 -- -- -- -- -- -- -- -- --
2017-09-23 03:00:00 -- -- -- -- -- -- -- -- --
2017-09-23 02:00:00 -- -- -- -- -- -- -- -- --
2017-09-23 01:00:00 -- -- -- -- -- -- -- -- --
2017-09-23 00:00:00 -- -- -- -- -- -- -- -- --
2017-09-22 23:00:00 -- -- -- -- -- -- -- -- --
2017-09-22 22:00:00 -- -- -- -- -- -- -- -- --
2017-09-22 21:00:00 -- -- -- -- -- -- -- -- --
2017-09-22 20:00:00 -- -- -- -- -- -- -- -- --
2017-09-22 19:00:00 -- -- -- -- -- -- -- -- --
2017-09-22 18:00:00 24.2 12 Sudeste 30 Sudeste 0 -- -- 37
2017-09-22 17:00:00 25.5 18 Sur 32 Sur 0 -- -- 35
2017-09-22 16:00:00 25.8 10 Sudeste 29 Sur 0 -- -- 34
2017-09-22 15:00:00 24.8 17 Sudeste 29 Sudeste 0 -- -- 38
2017-09-22 14:00:00 23.9 15 Sudeste 30 Sudeste 0 -- -- 43
2017-09-22 13:00:00 21.9 17 Sudeste 28 Sudeste 0 -- -- 49
2017-09-22 12:00:00 20.2 17 Sudeste 30 Sudeste 0 -- -- 54
2017-09-22 11:00:00 18.4 11 Sudeste 27 Sudeste 0 -- -- 66
2017-09-22 10:00:00 16.4 9 Sudeste 18 Sudeste 0 -- -- 76
2017-09-22 09:00:00 14.9 6 Sudeste 19 Sudeste 0 -- -- 81
2017-09-22 08:00:00 15.3 10 Sudeste 21 Sudeste 0 -- -- 78
2017-09-22 07:00:00 15.8 9 Sur 27 Sudeste 0 -- -- 76
2017-09-22 06:00:00 17.1 10 Sur 22 Sur 0 -- -- 72
2017-09-22 05:00:00 17.7 12 Sudeste 26 Sudeste 0 -- -- 70
2017-09-22 04:00:00 18.2 13 Sudeste 32 Sudeste 0 -- -- 69
2017-09-22 03:00:00 18.7 13 Sudeste 30 Sudeste 0 -- -- 65
2017-09-22 02:00:00 18.6 9 Sur 18 Sudeste 0 -- -- 63
2017-09-22 01:00:00 18.7 8 Sur 14 Sudeste 0 -- -- 47
2017-09-22 00:00:00 19.5 7 Este 23 Sudeste 0 -- -- 34
2017-09-21 23:00:00 18.7 3 Noroeste 11 Oeste -- -- -- 32
2017-09-21 22:00:00 21.1 0 Calma 4 Sur 0 -- -- 29
2017-09-21 21:00:00 23.3 0 Calma 5 Sudoeste 0 -- -- 27
2017-09-21 20:00:00 25.7 3 Sudoeste 12 Noroeste 0 -- -- 24
2017-09-21 19:00:00 27.4 7 Oeste 18 Oeste 0 -- -- 23
2017-09-21 18:00:00 27.9 8 Sudoeste 24 Oeste 0 -- -- 23
2017-09-21 17:00:00 28.1 6 Oeste 21 Sudoeste 0 -- -- 23
2017-09-21 16:00:00 27.6 9 Oeste 26 Sur 0 -- -- 24
2017-09-21 15:00:00 28.5 8 Sudoeste 19 Sur 0 -- -- 25
2017-09-21 14:00:00 27.1 6 Sudeste 14 Sudoeste 0 -- -- 28
2017-09-21 13:00:00 24.2 6 Sudoeste 14 Sudeste 0 -- -- 36
2017-09-21 12:00:00 21.7 8 Sudeste 20 Sudeste 0 -- -- 49
2017-09-21 11:00:00 19.1 12 Sudeste 21 Sudeste 0 -- -- 61
2017-09-21 10:00:00 16 8 Sudeste 16 Sudeste 0 -- -- 76
2017-09-21 09:00:00 11.9 5 Nordeste 8 Nordeste 0 -- -- 85
2017-09-21 08:00:00 11.9 4 Este 7 Este 0 -- -- 81
2017-09-21 07:00:00 12.9 0 Calma 12 Este 0 -- -- 77
2017-09-21 06:00:00 13 4 Este 8 Nordeste 0 -- -- 77
2017-09-21 05:00:00 13.2 4 Nordeste 8 Sudeste 0 -- -- 65
2017-09-21 04:00:00 14.2 2 Este 9 Sur 0 -- -- 63
2017-09-21 03:00:00 14.8 4 Sudoeste 9 Sudoeste 0 -- -- 54
2017-09-21 02:00:00 14.7 2 Sur 14 Sudeste 0 -- -- 41
2017-09-21 01:00:00 14.5 0 Calma 4 Nordeste 0 -- -- 40
2017-09-21 00:00:00 16 0 Calma 0 Calma 0 -- -- 37
2017-09-20 23:00:00 17.5 0 Calma 0 Calma 0 -- -- 35
2017-09-20 22:00:00 19.7 0 Calma 5 Sudeste 0 -- -- 31
2017-09-20 21:00:00 22.4 2 Sudeste 4 Sudeste 0 -- -- 28
2017-09-20 20:00:00 25.2 0 Calma 14 Sudoeste 0 -- -- 25
2017-09-20 19:00:00 27 5 Sudoeste 18 Oeste 0 -- -- 23
2017-09-20 18:00:00 27.1 6 Oeste 19 Noroeste 0 -- -- 22
2017-09-20 17:00:00 26.8 7 Noroeste 21 Noroeste 0 -- -- 23
2017-09-20 16:00:00 26.8 5 Noroeste 19 Noroeste 0 -- -- 21
2017-09-20 15:00:00 26 6 Sudoeste 18 Oeste 0 -- -- 25
2017-09-20 14:00:00 25 8 Oeste 19 Sudoeste 0 -- -- 26
2017-09-20 13:00:00 23.2 5 Sur 13 Oeste 0 -- -- 29
2017-09-20 12:00:00 21 4 Sudeste 12 Sudeste 0 -- -- 38
2017-09-20 11:00:00 18.2 6 Sur 13 Sudeste 0 -- -- 44
2017-09-20 10:00:00 13.2 2 Nordeste 5 Nordeste 0 -- -- 43
2017-09-20 09:00:00 9.7 0 Calma 4 Nordeste 0 -- -- 49
2017-09-20 08:00:00 9.9 0 Calma 12 Nordeste 0 -- -- 48
2017-09-20 07:00:00 10.6 8 Nordeste 11 Nordeste 0 -- -- 46
2017-09-20 06:00:00 12.3 7 Nordeste 13 Nordeste 0 -- -- 43
2017-09-20 05:00:00 13.1 10 Nordeste 17 Nordeste 0 -- -- 42
2017-09-20 04:00:00 13.7 13 Nordeste 20 Nordeste 0 -- -- 41
2017-09-20 03:00:00 14.3 10 Nordeste 18 Nordeste 0 -- -- 37
2017-09-20 02:00:00 13 4 Nordeste 6 Nordeste 0 -- -- 37
2017-09-20 01:00:00 14.3 0 Calma 3 Sudeste 0 -- -- 37
2017-09-20 00:00:00 15.8 0 Calma 11 Norte 0 -- -- 35